Strona główna
METAR-TAF:

METAR-TAF

Lotnisko :

Port lotniczy Genewa-Cointrin

Genewa, Szwajcaria

Szerokość geograficzna: 46-15N, Długość geograficzna: 006-08E, wysokość: 420 m

Aktualna obserwacja pogody

Raport powstał 38 minut temu, godzina 10:20 UTC
Wiatr 2 kt z kierunków zmiennych
Temperatura 12°C
Wilgotność 50%
Ciśnienie 1016 hPa
Widzialność 10 km lub więcej
Mało chmury na wysokości 5000 ft

METAR: LSGG 281020Z VRB02KT 9999 FEW050 12/02 Q1016 NOSIG

czas: 11:58 (10:58 UTC)

Prognoza

Raport powstał 2 godziny i 33 minut temu, godzina 08:25 UTC
Prognoza ważna od 28 godzina 09 UTC do 29 godzina 15 UTC
Wiatr 6 kt od północny wschód
Widzialność 10 km lub więcej
Brak chmur poniżej 1500 m i brak chmur cumulonimbus

TAF: LSGG 280825Z 2809/2915 05006KT CAVOK TX15/2815Z TN04/2905Z TX12/2915Z

Obserwacja i prognoza pogody dla ponad 4000 lotnisk (raport METAR i TAF).

Dostępne stacje oznaczono żółtymi i czerwonymi punktami na mapie.

Najedź kursorem aby zobaczyć nazwę stacji.

Kliknij aby zobaczyć obserwacje i prognozy pogody.

Aby zmienić mapę: kliknij na zielony przycisk z czarnym krzyżykiem, aby powiększyć; na zielony przycisk z myślnikiem, aby pomniejszyć; na zielone strzałki, aby przejść do map sąsiednich.


METAR-TAF: